sensor_id;sensor_type;location;lat;lon;timestamp;temperature;humidity
20370;DHT22;10344;47.592;9.600;2023-06-10T00:02:09;19.30;99.70
20370;DHT22;10344;47.592;9.600;2023-06-10T00:04:35;19.20;99.90
20370;DHT22;10344;47.592;9.600;2023-06-10T00:07:09;19.10;99.90
20370;DHT22;10344;47.592;9.600;2023-06-10T00:09:36;18.90;99.90
20370;DHT22;10344;47.592;9.600;2023-06-10T00:12:08;18.90;99.90
20370;DHT22;10344;47.592;9.600;2023-06-10T00:14:44;18.80;99.90
20370;DHT22;10344;47.592;9.600;2023-06-10T00:17:12;18.60;99.90
20370;DHT22;10344;47.592;9.600;2023-06-10T00:19:43;18.60;99.90
20370;DHT22;10344;47.592;9.600;2023-06-10T00:22:12;18.50;99.90
20370;DHT22;10344;47.592;9.600;2023-06-10T00:24:44;18.50;99.90
20370;DHT22;10344;47.592;9.600;2023-06-10T00:27:13;18.40;99.90
20370;DHT22;10344;47.592;9.600;2023-06-10T00:29:47;18.40;99.90
20370;DHT22;10344;47.592;9.600;2023-06-10T00:32:18;18.30;99.90
20370;DHT22;10344;47.592;9.600;2023-06-10T00:34:43;18.30;99.90
20370;DHT22;10344;47.592;9.600;2023-06-10T00:37:09;18.30;99.90
20370;DHT22;10344;47.592;9.600;2023-06-10T00:39:37;18.20;99.90
20370;DHT22;10344;47.592;9.600;2023-06-10T00:42:08;18.20;99.90
20370;DHT22;10344;47.592;9.600;2023-06-10T00:44:36;18.20;99.90
20370;DHT22;10344;47.592;9.600;2023-06-10T00:47:09;18.20;99.90
20370;DHT22;10344;47.592;9.600;2023-06-10T00:49:37;18.10;99.90
20370;DHT22;10344;47.592;9.600;2023-06-10T00:52:07;18.00;99.90
20370;DHT22;10344;47.592;9.600;2023-06-10T00:54:44;17.90;99.90
20370;DHT22;10344;47.592;9.600;2023-06-10T00:57:12;17.90;99.90
20370;DHT22;10344;47.592;9.600;2023-06-10T00:59:49;17.90;99.90
20370;DHT22;10344;47.592;9.600;2023-06-10T01:02:23;17.80;99.90
20370;DHT22;10344;47.592;9.600;2023-06-10T01:04:49;17.70;99.90
20370;DHT22;10344;47.592;9.600;2023-06-10T01:07:33;17.60;99.90
20370;DHT22;10344;47.592;9.600;2023-06-10T01:10:11;17.50;99.90
20370;DHT22;10344;47.592;9.600;2023-06-10T01:12:43;17.50;99.90
20370;DHT22;10344;47.592;9.600;2023-06-10T01:15:21;17.40;99.90
20370;DHT22;10344;47.592;9.600;2023-06-10T01:18:02;17.30;99.90
20370;DHT22;10344;47.592;9.600;2023-06-10T01:20:46;17.10;99.90
20370;DHT22;10344;47.592;9.600;2023-06-10T01:23:14;17.10;99.90
20370;DHT22;10344;47.592;9.600;2023-06-10T01:25:52;17.10;99.90
20370;DHT22;10344;47.592;9.600;2023-06-10T01:31:38;16.90;99.90
20370;DHT22;10344;47.592;9.600;2023-06-10T01:34:10;16.80;99.90
20370;DHT22;10344;47.592;9.600;2023-06-10T01:36:41;16.70;99.90
20370;DHT22;10344;47.592;9.600;2023-06-10T01:39:11;16.70;99.90
20370;DHT22;10344;47.592;9.600;2023-06-10T01:41:40;16.70;99.90
20370;DHT22;10344;47.592;9.600;2023-06-10T01:44:06;16.80;99.90
20370;DHT22;10344;47.592;9.600;2023-06-10T01:46:31;16.80;99.90
20370;DHT22;10344;47.592;9.600;2023-06-10T01:49:02;16.80;99.90
20370;DHT22;10344;47.592;9.600;2023-06-10T01:51:30;16.70;99.90
20370;DHT22;10344;47.592;9.600;2023-06-10T01:53:58;16.60;99.90
20370;DHT22;10344;47.592;9.600;2023-06-10T01:56:23;16.50;99.90
20370;DHT22;10344;47.592;9.600;2023-06-10T01:58:49;16.50;99.90
20370;DHT22;10344;47.592;9.600;2023-06-10T02:01:17;16.40;99.90
20370;DHT22;10344;47.592;9.600;2023-06-10T02:03:43;16.40;99.90
20370;DHT22;10344;47.592;9.600;2023-06-10T02:06:10;16.40;99.90
20370;DHT22;10344;47.592;9.600;2023-06-10T02:08:38;16.30;99.90
20370;DHT22;10344;47.592;9.600;2023-06-10T02:11:07;16.30;99.90
20370;DHT22;10344;47.592;9.600;2023-06-10T02:13:32;16.20;99.90
20370;DHT22;10344;47.592;9.600;2023-06-10T02:15:58;16.10;99.90
20370;DHT22;10344;47.592;9.600;2023-06-10T02:18:26;16.10;99.90
20370;DHT22;10344;47.592;9.600;2023-06-10T02:20:53;16.10;99.90
20370;DHT22;10344;47.592;9.600;2023-06-10T02:23:18;16.00;99.90
20370;DHT22;10344;47.592;9.600;2023-06-10T02:25:44;16.00;99.90
20370;DHT22;10344;47.592;9.600;2023-06-10T02:28:11;16.00;99.90
20370;DHT22;10344;47.592;9.600;2023-06-10T02:30:40;16.00;99.90
20370;DHT22;10344;47.592;9.600;2023-06-10T02:33:06;16.10;99.90
20370;DHT22;10344;47.592;9.600;2023-06-10T02:35:35;16.00;99.90
20370;DHT22;10344;47.592;9.600;2023-06-10T02:38:02;16.00;99.90
20370;DHT22;10344;47.592;9.600;2023-06-10T02:40:30;15.90;99.90
20370;DHT22;10344;47.592;9.600;2023-06-10T02:42:58;15.90;99.90
20370;DHT22;10344;47.592;9.600;2023-06-10T02:45:24;15.90;99.90
20370;DHT22;10344;47.592;9.600;2023-06-10T02:47:50;15.90;99.90
20370;DHT22;10344;47.592;9.600;2023-06-10T02:50:15;15.90;99.90
20370;DHT22;10344;47.592;9.600;2023-06-10T02:52:41;15.90;99.90
20370;DHT22;10344;47.592;9.600;2023-06-10T02:55:07;15.90;99.90
20370;DHT22;10344;47.592;9.600;2023-06-10T02:57:32;15.90;99.90
20370;DHT22;10344;47.592;9.600;2023-06-10T02:59:58;15.90;99.90
20370;DHT22;10344;47.592;9.600;2023-06-10T03:02:24;15.90;99.90
20370;DHT22;10344;47.592;9.600;2023-06-10T03:04:56;15.80;99.90
20370;DHT22;10344;47.592;9.600;2023-06-10T03:07:21;15.70;99.90
20370;DHT22;10344;47.592;9.600;2023-06-10T03:09:48;15.70;99.90
20370;DHT22;10344;47.592;9.600;2023-06-10T03:12:15;15.70;99.90
20370;DHT22;10344;47.592;9.600;2023-06-10T03:14:41;15.70;99.90
20370;DHT22;10344;47.592;9.600;2023-06-10T03:17:15;15.70;99.90
20370;DHT22;10344;47.592;9.600;2023-06-10T03:19:42;15.70;99.90
20370;DHT22;10344;47.592;9.600;2023-06-10T03:22:11;15.70;99.90
20370;DHT22;10344;47.592;9.600;2023-06-10T03:24:37;15.60;99.90
20370;DHT22;10344;47.592;9.600;2023-06-10T03:27:08;15.60;99.90
20370;DHT22;10344;47.592;9.600;2023-06-10T03:29:35;15.60;99.90
20370;DHT22;10344;47.592;9.600;2023-06-10T03:32:02;15.60;99.90
20370;DHT22;10344;47.592;9.600;2023-06-10T03:34:31;15.60;99.90
20370;DHT22;10344;47.592;9.600;2023-06-10T03:36:59;15.50;99.90
20370;DHT22;10344;47.592;9.600;2023-06-10T03:39:27;15.50;99.90
20370;DHT22;10344;47.592;9.600;2023-06-10T03:41:54;15.50;99.90
20370;DHT22;10344;47.592;9.600;2023-06-10T03:44:20;15.50;99.90
20370;DHT22;10344;47.592;9.600;2023-06-10T03:46:46;15.50;99.90
20370;DHT22;10344;47.592;9.600;2023-06-10T03:49:12;15.50;99.90
20370;DHT22;10344;47.592;9.600;2023-06-10T03:51:38;15.50;99.90
20370;DHT22;10344;47.592;9.600;2023-06-10T03:54:03;15.50;99.90
20370;DHT22;10344;47.592;9.600;2023-06-10T03:56:31;15.50;99.90
20370;DHT22;10344;47.592;9.600;2023-06-10T03:58:59;15.50;99.90
20370;DHT22;10344;47.592;9.600;2023-06-10T04:01:27;15.50;99.90
20370;DHT22;10344;47.592;9.600;2023-06-10T04:03:58;15.50;99.90
20370;DHT22;10344;47.592;9.600;2023-06-10T04:06:24;15.60;99.90
20370;DHT22;10344;47.592;9.600;2023-06-10T04:08:51;15.60;99.90
20370;DHT22;10344;47.592;9.600;2023-06-10T04:11:19;15.60;99.90
20370;DHT22;10344;47.592;9.600;2023-06-10T04:13:49;15.60;99.90
20370;DHT22;10344;47.592;9.600;2023-06-10T04:16:15;15.70;99.90
20370;DHT22;10344;47.592;9.600;2023-06-10T04:18:41;15.70;99.90
20370;DHT22;10344;47.592;9.600;2023-06-10T04:21:10;15.60;99.90
20370;DHT22;10344;47.592;9.600;2023-06-10T04:23:35;15.60;99.90
20370;DHT22;10344;47.592;9.600;2023-06-10T04:26:07;15.70;99.90
20370;DHT22;10344;47.592;9.600;2023-06-10T04:28:33;15.70;99.90
20370;DHT22;10344;47.592;9.600;2023-06-10T04:30:58;15.70;99.90
20370;DHT22;10344;47.592;9.600;2023-06-10T04:33:24;15.70;99.90
20370;DHT22;10344;47.592;9.600;2023-06-10T04:35:50;15.70;99.90
20370;DHT22;10344;47.592;9.600;2023-06-10T04:38:15;15.70;99.90
20370;DHT22;10344;47.592;9.600;2023-06-10T04:40:41;15.80;99.90
20370;DHT22;10344;47.592;9.600;2023-06-10T04:43:12;15.80;99.90
20370;DHT22;10344;47.592;9.600;2023-06-10T04:45:38;15.90;99.90
20370;DHT22;10344;47.592;9.600;2023-06-10T04:48:03;15.90;99.90
20370;DHT22;10344;47.592;9.600;2023-06-10T04:50:29;16.00;99.90
20370;DHT22;10344;47.592;9.600;2023-06-10T04:52:55;16.00;99.90
20370;DHT22;10344;47.592;9.600;2023-06-10T04:55:22;16.10;99.90
20370;DHT22;10344;47.592;9.600;2023-06-10T04:57:48;16.10;99.90
20370;DHT22;10344;47.592;9.600;2023-06-10T05:00:14;16.10;99.90
20370;DHT22;10344;47.592;9.600;2023-06-10T05:02:39;16.10;99.90
20370;DHT22;10344;47.592;9.600;2023-06-10T05:05:05;16.20;99.90
20370;DHT22;10344;47.592;9.600;2023-06-10T05:07:31;16.20;99.90
20370;DHT22;10344;47.592;9.600;2023-06-10T05:09:57;16.40;99.90
20370;DHT22;10344;47.592;9.600;2023-06-10T05:12:22;16.40;99.90
20370;DHT22;10344;47.592;9.600;2023-06-10T05:14:50;16.50;99.90
20370;DHT22;10344;47.592;9.600;2023-06-10T05:17:16;16.60;99.90
20370;DHT22;10344;47.592;9.600;2023-06-10T05:19:44;16.70;99.90
20370;DHT22;10344;47.592;9.600;2023-06-10T05:22:10;16.70;99.90
20370;DHT22;10344;47.592;9.600;2023-06-10T05:24:36;16.80;99.90
20370;DHT22;10344;47.592;9.600;2023-06-10T05:27:03;16.90;99.90
20370;DHT22;10344;47.592;9.600;2023-06-10T05:29:32;17.00;99.90
20370;DHT22;10344;47.592;9.600;2023-06-10T05:32:01;17.00;99.90
20370;DHT22;10344;47.592;9.600;2023-06-10T05:34:29;17.10;99.90
20370;DHT22;10344;47.592;9.600;2023-06-10T05:36:57;17.10;99.90
20370;DHT22;10344;47.592;9.600;2023-06-10T05:39:23;17.10;99.90
20370;DHT22;10344;47.592;9.600;2023-06-10T05:41:51;17.20;99.90
20370;DHT22;10344;47.592;9.600;2023-06-10T05:44:18;17.30;99.90
20370;DHT22;10344;47.592;9.600;2023-06-10T05:46:48;17.40;99.90
20370;DHT22;10344;47.592;9.600;2023-06-10T05:49:17;17.40;99.90
20370;DHT22;10344;47.592;9.600;2023-06-10T05:51:43;17.50;99.90
20370;DHT22;10344;47.592;9.600;2023-06-10T05:54:12;17.50;99.90
20370;DHT22;10344;47.592;9.600;2023-06-10T05:56:40;17.60;99.90
20370;DHT22;10344;47.592;9.600;2023-06-10T05:59:05;17.60;99.90
20370;DHT22;10344;47.592;9.600;2023-06-10T06:01:35;17.70;99.90
20370;DHT22;10344;47.592;9.600;2023-06-10T06:04:00;17.70;99.90
20370;DHT22;10344;47.592;9.600;2023-06-10T06:06:39;17.80;99.90
20370;DHT22;10344;47.592;9.600;2023-06-10T06:09:05;17.90;99.90
20370;DHT22;10344;47.592;9.600;2023-06-10T06:11:34;18.00;99.90
20370;DHT22;10344;47.592;9.600;2023-06-10T06:14:03;18.20;99.90
20370;DHT22;10344;47.592;9.600;2023-06-10T06:16:28;18.40;99.90
20370;DHT22;10344;47.592;9.600;2023-06-10T06:18:57;18.40;99.90
20370;DHT22;10344;47.592;9.600;2023-06-10T06:21:26;18.50;99.90
20370;DHT22;10344;47.592;9.600;2023-06-10T06:23:54;18.50;99.90
20370;DHT22;10344;47.592;9.600;2023-06-10T06:26:22;18.60;99.90
20370;DHT22;10344;47.592;9.600;2023-06-10T06:28:50;18.50;99.90
20370;DHT22;10344;47.592;9.600;2023-06-10T06:31:15;18.60;99.90
20370;DHT22;10344;47.592;9.600;2023-06-10T06:33:46;18.70;99.90
20370;DHT22;10344;47.592;9.600;2023-06-10T06:36:15;18.80;99.90
20370;DHT22;10344;47.592;9.600;2023-06-10T06:38:42;18.90;99.90
20370;DHT22;10344;47.592;9.600;2023-06-10T06:41:07;19.00;99.90
20370;DHT22;10344;47.592;9.600;2023-06-10T06:43:37;19.20;99.90
20370;DHT22;10344;47.592;9.600;2023-06-10T06:46:05;19.40;99.90
20370;DHT22;10344;47.592;9.600;2023-06-10T06:48:31;19.60;99.90
20370;DHT22;10344;47.592;9.600;2023-06-10T06:50:56;20.10;99.90
20370;DHT22;10344;47.592;9.600;2023-06-10T06:53:26;20.90;99.90
20370;DHT22;10344;47.592;9.600;2023-06-10T06:55:51;21.70;99.90
20370;DHT22;10344;47.592;9.600;2023-06-10T06:58:17;22.50;99.90
20370;DHT22;10344;47.592;9.600;2023-06-10T07:00:42;23.10;99.90
20370;DHT22;10344;47.592;9.600;2023-06-10T07:03:10;23.50;99.90
20370;DHT22;10344;47.592;9.600;2023-06-10T07:05:38;24.00;99.90
20370;DHT22;10344;47.592;9.600;2023-06-10T07:08:05;24.40;99.90
20370;DHT22;10344;47.592;9.600;2023-06-10T07:10:31;24.50;99.90
20370;DHT22;10344;47.592;9.600;2023-06-10T07:12:57;24.60;99.90
20370;DHT22;10344;47.592;9.600;2023-06-10T07:15:25;25.10;99.90
20370;DHT22;10344;47.592;9.600;2023-06-10T07:17:51;25.60;99.90
20370;DHT22;10344;47.592;9.600;2023-06-10T07:20:17;25.70;99.90
20370;DHT22;10344;47.592;9.600;2023-06-10T07:22:43;25.80;99.90
20370;DHT22;10344;47.592;9.600;2023-06-10T07:25:09;25.70;99.90
20370;DHT22;10344;47.592;9.600;2023-06-10T07:27:37;25.70;99.90
20370;DHT22;10344;47.592;9.600;2023-06-10T07:30:04;25.50;99.90
20370;DHT22;10344;47.592;9.600;2023-06-10T07:32:31;25.30;99.90
20370;DHT22;10344;47.592;9.600;2023-06-10T07:34:57;25.20;99.90
20370;DHT22;10344;47.592;9.600;2023-06-10T07:37:25;25.10;99.90
20370;DHT22;10344;47.592;9.600;2023-06-10T07:39:57;25.00;99.90
20370;DHT22;10344;47.592;9.600;2023-06-10T07:42:23;25.40;99.90
20370;DHT22;10344;47.592;9.600;2023-06-10T07:44:56;25.20;99.90
20370;DHT22;10344;47.592;9.600;2023-06-10T07:47:22;25.20;99.90
20370;DHT22;10344;47.592;9.600;2023-06-10T07:49:48;25.50;99.90
20370;DHT22;10344;47.592;9.600;2023-06-10T07:52:18;25.90;99.90
20370;DHT22;10344;47.592;9.600;2023-06-10T07:54:44;25.80;99.90
20370;DHT22;10344;47.592;9.600;2023-06-10T07:57:09;25.90;99.90
20370;DHT22;10344;47.592;9.600;2023-06-10T07:59:42;25.80;99.90
20370;DHT22;10344;47.592;9.600;2023-06-10T08:02:09;25.90;99.90
20370;DHT22;10344;47.592;9.600;2023-06-10T08:04:38;26.10;99.90
20370;DHT22;10344;47.592;9.600;2023-06-10T08:07:05;26.60;99.90
20370;DHT22;10344;47.592;9.600;2023-06-10T08:09:33;26.30;99.90
20370;DHT22;10344;47.592;9.600;2023-06-10T08:12:02;26.40;99.90
20370;DHT22;10344;47.592;9.600;2023-06-10T08:14:36;26.90;99.90
20370;DHT22;10344;47.592;9.600;2023-06-10T08:17:10;26.80;99.90
20370;DHT22;10344;47.592;9.600;2023-06-10T08:19:36;26.40;99.90
20370;DHT22;10344;47.592;9.600;2023-06-10T08:22:02;26.50;99.90
20370;DHT22;10344;47.592;9.600;2023-06-10T08:24:29;26.50;99.90
20370;DHT22;10344;47.592;9.600;2023-06-10T08:27:02;26.90;99.90
20370;DHT22;10344;47.592;9.600;2023-06-10T08:29:28;27.00;99.90
20370;DHT22;10344;47.592;9.600;2023-06-10T08:31:56;26.80;99.90
20370;DHT22;10344;47.592;9.600;2023-06-10T08:34:32;26.00;99.90
20370;DHT22;10344;47.592;9.600;2023-06-10T08:36:58;25.90;99.90
20370;DHT22;10344;47.592;9.600;2023-06-10T08:39:26;25.90;99.90
20370;DHT22;10344;47.592;9.600;2023-06-10T08:44:38;26.10;99.90
20370;DHT22;10344;47.592;9.600;2023-06-10T08:47:15;25.20;99.90
20370;DHT22;10344;47.592;9.600;2023-06-10T08:49:45;25.20;99.90
20370;DHT22;10344;47.592;9.600;2023-06-10T08:52:20;25.00;99.90
20370;DHT22;10344;47.592;9.600;2023-06-10T08:54:59;25.20;99.90
20370;DHT22;10344;47.592;9.600;2023-06-10T08:57:31;25.70;99.90
20370;DHT22;10344;47.592;9.600;2023-06-10T08:59:59;26.80;99.90
20370;DHT22;10344;47.592;9.600;2023-06-10T09:02:27;27.60;99.90
20370;DHT22;10344;47.592;9.600;2023-06-10T09:04:53;27.50;99.90
20370;DHT22;10344;47.592;9.600;2023-06-10T09:07:21;27.00;99.90
20370;DHT22;10344;47.592;9.600;2023-06-10T09:09:55;26.80;99.90
20370;DHT22;10344;47.592;9.600;2023-06-10T09:12:21;26.50;99.90
20370;DHT22;10344;47.592;9.600;2023-06-10T09:14:49;26.40;99.90
20370;DHT22;10344;47.592;9.600;2023-06-10T09:17:16;26.60;99.90
20370;DHT22;10344;47.592;9.600;2023-06-10T09:19:41;26.40;99.90
20370;DHT22;10344;47.592;9.600;2023-06-10T09:22:10;26.30;99.90
20370;DHT22;10344;47.592;9.600;2023-06-10T09:24:38;26.30;99.90
20370;DHT22;10344;47.592;9.600;2023-06-10T09:27:06;26.40;99.90
20370;DHT22;10344;47.592;9.600;2023-06-10T09:29:54;25.90;99.90
20370;DHT22;10344;47.592;9.600;2023-06-10T09:32:21;25.60;99.90
20370;DHT22;10344;47.592;9.600;2023-06-10T09:34:47;25.70;99.90
20370;DHT22;10344;47.592;9.600;2023-06-10T09:37:27;25.90;99.90
20370;DHT22;10344;47.592;9.600;2023-06-10T09:40:22;26.10;99.90
20370;DHT22;10344;47.592;9.600;2023-06-10T09:43:01;25.70;99.90
20370;DHT22;10344;47.592;9.600;2023-06-10T09:45:31;25.90;99.90
20370;DHT22;10344;47.592;9.600;2023-06-10T09:47:57;25.90;99.90
20370;DHT22;10344;47.592;9.600;2023-06-10T09:50:26;26.40;99.90
20370;DHT22;10344;47.592;9.600;2023-06-10T09:52:52;26.60;99.90
20370;DHT22;10344;47.592;9.600;2023-06-10T09:55:18;26.70;99.90
20370;DHT22;10344;47.592;9.600;2023-06-10T09:57:54;26.50;99.90
20370;DHT22;10344;47.592;9.600;2023-06-10T10:00:25;26.40;99.90
20370;DHT22;10344;47.592;9.600;2023-06-10T10:02:53;26.20;99.90
20370;DHT22;10344;47.592;9.600;2023-06-10T10:05:22;25.90;99.90
20370;DHT22;10344;47.592;9.600;2023-06-10T10:07:51;26.20;99.90
20370;DHT22;10344;47.592;9.600;2023-06-10T10:10:24;26.90;99.90
20370;DHT22;10344;47.592;9.600;2023-06-10T10:12:55;27.30;99.90
20370;DHT22;10344;47.592;9.600;2023-06-10T10:15:31;26.50;99.90
20370;DHT22;10344;47.592;9.600;2023-06-10T10:18:06;26.10;99.90
20370;DHT22;10344;47.592;9.600;2023-06-10T10:20:50;25.40;99.90
20370;DHT22;10344;47.592;9.600;2023-06-10T10:26:20;24.90;99.90
20370;DHT22;10344;47.592;9.600;2023-06-10T10:29:01;25.90;99.90
20370;DHT22;10344;47.592;9.600;2023-06-10T10:31:34;26.90;99.90
20370;DHT22;10344;47.592;9.600;2023-06-10T10:34:07;27.20;99.90
20370;DHT22;10344;47.592;9.600;2023-06-10T10:36:36;27.40;99.90
20370;DHT22;10344;47.592;9.600;2023-06-10T10:39:05;27.20;99.90
20370;DHT22;10344;47.592;9.600;2023-06-10T10:41:38;27.20;99.90
20370;DHT22;10344;47.592;9.600;2023-06-10T10:44:05;27.40;99.90
20370;DHT22;10344;47.592;9.600;2023-06-10T10:46:42;27.20;99.90
20370;DHT22;10344;47.592;9.600;2023-06-10T10:49:22;27.00;99.90
20370;DHT22;10344;47.592;9.600;2023-06-10T10:51:59;27.30;99.90
20370;DHT22;10344;47.592;9.600;2023-06-10T10:54:36;27.60;99.90
20370;DHT22;10344;47.592;9.600;2023-06-10T10:57:20;28.20;99.90
20370;DHT22;10344;47.592;9.600;2023-06-10T11:04:47;28.80;99.90
20370;DHT22;10344;47.592;9.600;2023-06-10T11:07:13;28.80;99.90
20370;DHT22;10344;47.592;9.600;2023-06-10T11:09:59;28.50;99.90
20370;DHT22;10344;47.592;9.600;2023-06-10T11:15:11;28.20;99.90
20370;DHT22;10344;47.592;9.600;2023-06-10T11:18:12;28.00;99.90
20370;DHT22;10344;47.592;9.600;2023-06-10T11:28:41;27.80;99.90
20370;DHT22;10344;47.592;9.600;2023-06-10T11:31:08;27.50;99.90
20370;DHT22;10344;47.592;9.600;2023-06-10T11:33:42;27.60;99.90
20370;DHT22;10344;47.592;9.600;2023-06-10T11:36:13;27.90;99.90
20370;DHT22;10344;47.592;9.600;2023-06-10T11:38:40;28.30;99.90
20370;DHT22;10344;47.592;9.600;2023-06-10T11:41:06;28.60;99.90
20370;DHT22;10344;47.592;9.600;2023-06-10T11:43:40;29.00;99.90
20370;DHT22;10344;47.592;9.600;2023-06-10T11:46:11;29.70;99.90
20370;DHT22;10344;47.592;9.600;2023-06-10T11:48:37;29.90;99.90
20370;DHT22;10344;47.592;9.600;2023-06-10T11:51:11;29.10;99.90
20370;DHT22;10344;47.592;9.600;2023-06-10T11:53:40;29.10;99.90
20370;DHT22;10344;47.592;9.600;2023-06-10T11:56:06;28.70;99.90
20370;DHT22;10344;47.592;9.600;2023-06-10T11:58:31;28.50;99.90
20370;DHT22;10344;47.592;9.600;2023-06-10T12:01:00;28.20;99.90
20370;DHT22;10344;47.592;9.600;2023-06-10T12:03:29;28.50;99.90
20370;DHT22;10344;47.592;9.600;2023-06-10T12:06:05;29.10;99.90
20370;DHT22;10344;47.592;9.600;2023-06-10T12:08:36;29.90;99.90
20370;DHT22;10344;47.592;9.600;2023-06-10T12:11:06;29.70;99.90
20370;DHT22;10344;47.592;9.600;2023-06-10T12:13:32;29.20;99.90
20370;DHT22;10344;47.592;9.600;2023-06-10T12:16:08;29.10;99.90
20370;DHT22;10344;47.592;9.600;2023-06-10T12:18:39;29.10;99.90
20370;DHT22;10344;47.592;9.600;2023-06-10T12:21:27;29.30;99.90
20370;DHT22;10344;47.592;9.600;2023-06-10T12:24:04;29.70;99.90
20370;DHT22;10344;47.592;9.600;2023-06-10T12:26:40;30.20;99.90
20370;DHT22;10344;47.592;9.600;2023-06-10T12:32:01;29.90;99.90
20370;DHT22;10344;47.592;9.600;2023-06-10T12:34:32;29.50;99.90
20370;DHT22;10344;47.592;9.600;2023-06-10T12:37:05;29.30;99.90
20370;DHT22;10344;47.592;9.600;2023-06-10T12:39:41;29.10;99.90
20370;DHT22;10344;47.592;9.600;2023-06-10T12:42:13;29.10;99.90
20370;DHT22;10344;47.592;9.600;2023-06-10T12:44:42;29.40;99.90
20370;DHT22;10344;47.592;9.600;2023-06-10T12:47:13;29.70;99.90
20370;DHT22;10344;47.592;9.600;2023-06-10T12:49:39;30.10;99.90
20370;DHT22;10344;47.592;9.600;2023-06-10T12:52:05;30.30;99.90
20370;DHT22;10344;47.592;9.600;2023-06-10T12:54:33;30.30;99.90
20370;DHT22;10344;47.592;9.600;2023-06-10T12:57:03;29.90;99.90
20370;DHT22;10344;47.592;9.600;2023-06-10T12:59:28;29.50;99.90
20370;DHT22;10344;47.592;9.600;2023-06-10T13:01:54;29.50;99.90
20370;DHT22;10344;47.592;9.600;2023-06-10T13:04:20;29.90;99.90
20370;DHT22;10344;47.592;9.600;2023-06-10T13:06:52;30.60;99.90
20370;DHT22;10344;47.592;9.600;2023-06-10T13:09:17;31.10;99.90
20370;DHT22;10344;47.592;9.600;2023-06-10T13:11:43;31.50;99.90
20370;DHT22;10344;47.592;9.600;2023-06-10T13:14:16;31.80;99.90
20370;DHT22;10344;47.592;9.600;2023-06-10T13:16:41;32.00;99.90
20370;DHT22;10344;47.592;9.600;2023-06-10T13:19:15;32.10;99.90
20370;DHT22;10344;47.592;9.600;2023-06-10T13:21:44;32.20;99.80
20370;DHT22;10344;47.592;9.600;2023-06-10T13:24:16;32.30;99.90
20370;DHT22;10344;47.592;9.600;2023-06-10T13:26:44;32.40;98.80
20370;DHT22;10344;47.592;9.600;2023-06-10T13:29:17;32.60;99.30
20370;DHT22;10344;47.592;9.600;2023-06-10T13:31:49;32.60;98.10
20370;DHT22;10344;47.592;9.600;2023-06-10T13:34:15;32.40;97.40
20370;DHT22;10344;47.592;9.600;2023-06-10T13:36:40;32.20;98.00
20370;DHT22;10344;47.592;9.600;2023-06-10T13:39:09;31.80;96.50
20370;DHT22;10344;47.592;9.600;2023-06-10T13:41:37;31.70;98.10
20370;DHT22;10344;47.592;9.600;2023-06-10T13:44:05;32.00;97.90
20370;DHT22;10344;47.592;9.600;2023-06-10T13:46:31;32.10;98.70
20370;DHT22;10344;47.592;9.600;2023-06-10T13:49:07;32.50;98.00
20370;DHT22;10344;47.592;9.600;2023-06-10T13:51:32;32.80;97.40
20370;DHT22;10344;47.592;9.600;2023-06-10T13:54:01;33.00;97.70
20370;DHT22;10344;47.592;9.600;2023-06-10T13:56:29;33.10;97.00
20370;DHT22;10344;47.592;9.600;2023-06-10T13:58:55;33.00;96.10
20370;DHT22;10344;47.592;9.600;2023-06-10T14:01:21;32.60;96.50
20370;DHT22;10344;47.592;9.600;2023-06-10T14:03:53;32.20;96.90
20370;DHT22;10344;47.592;9.600;2023-06-10T14:06:21;31.60;95.10
20370;DHT22;10344;47.592;9.600;2023-06-10T14:08:52;31.30;97.20
20370;DHT22;10344;47.592;9.600;2023-06-10T14:11:20;31.50;95.00
20370;DHT22;10344;47.592;9.600;2023-06-10T14:13:52;31.90;94.80
20370;DHT22;10344;47.592;9.600;2023-06-10T14:16:20;32.00;96.90
20370;DHT22;10344;47.592;9.600;2023-06-10T14:18:49;31.70;97.10
20370;DHT22;10344;47.592;9.600;2023-06-10T14:21:17;31.40;97.00
20370;DHT22;10344;47.592;9.600;2023-06-10T14:23:43;31.50;97.40
20370;DHT22;10344;47.592;9.600;2023-06-10T14:26:09;31.50;94.60
20370;DHT22;10344;47.592;9.600;2023-06-10T14:28:38;31.70;93.60
20370;DHT22;10344;47.592;9.600;2023-06-10T14:31:03;31.50;93.50
20370;DHT22;10344;47.592;9.600;2023-06-10T14:33:32;31.30;93.20
20370;DHT22;10344;47.592;9.600;2023-06-10T14:35:58;31.20;93.70
20370;DHT22;10344;47.592;9.600;2023-06-10T14:38:26;31.30;93.70
20370;DHT22;10344;47.592;9.600;2023-06-10T14:40:52;31.50;93.40
20370;DHT22;10344;47.592;9.600;2023-06-10T14:43:20;31.80;94.10
20370;DHT22;10344;47.592;9.600;2023-06-10T14:45:52;32.10;94.30
20370;DHT22;10344;47.592;9.600;2023-06-10T14:48:18;32.40;92.80
20370;DHT22;10344;47.592;9.600;2023-06-10T14:50:45;32.30;91.70
20370;DHT22;10344;47.592;9.600;2023-06-10T14:53:16;31.90;92.40
20370;DHT22;10344;47.592;9.600;2023-06-10T14:55:41;31.30;92.20
20370;DHT22;10344;47.592;9.600;2023-06-10T14:58:07;31.30;92.60
20370;DHT22;10344;47.592;9.600;2023-06-10T15:00:32;31.50;91.30
20370;DHT22;10344;47.592;9.600;2023-06-10T15:02:58;31.70;91.80
20370;DHT22;10344;47.592;9.600;2023-06-10T15:05:29;32.00;91.90
20370;DHT22;10344;47.592;9.600;2023-06-10T15:07:55;32.10;91.90
20370;DHT22;10344;47.592;9.600;2023-06-10T15:10:21;32.20;92.00
20370;DHT22;10344;47.592;9.600;2023-06-10T15:12:49;31.80;92.70
20370;DHT22;10344;47.592;9.600;2023-06-10T15:15:29;31.40;91.60
20370;DHT22;10344;47.592;9.600;2023-06-10T15:17:55;31.30;92.00
20370;DHT22;10344;47.592;9.600;2023-06-10T15:20:28;31.40;91.70
20370;DHT22;10344;47.592;9.600;2023-06-10T15:22:56;31.40;91.20
20370;DHT22;10344;47.592;9.600;2023-06-10T15:25:21;31.60;90.80
20370;DHT22;10344;47.592;9.600;2023-06-10T15:27:55;31.70;91.80
20370;DHT22;10344;47.592;9.600;2023-06-10T15:30:21;31.50;91.40
20370;DHT22;10344;47.592;9.600;2023-06-10T15:32:55;31.30;90.50
20370;DHT22;10344;47.592;9.600;2023-06-10T15:35:25;30.80;91.00
20370;DHT22;10344;47.592;9.600;2023-06-10T15:37:51;30.30;91.30
20370;DHT22;10344;47.592;9.600;2023-06-10T15:40:17;29.90;91.90
20370;DHT22;10344;47.592;9.600;2023-06-10T15:42:42;29.70;93.00
20370;DHT22;10344;47.592;9.600;2023-06-10T15:45:14;29.80;93.00
20370;DHT22;10344;47.592;9.600;2023-06-10T15:47:41;30.10;92.60
20370;DHT22;10344;47.592;9.600;2023-06-10T15:50:08;30.40;91.80
20370;DHT22;10344;47.592;9.600;2023-06-10T15:52:33;30.60;92.40
20370;DHT22;10344;47.592;9.600;2023-06-10T15:55:02;30.50;92.90
20370;DHT22;10344;47.592;9.600;2023-06-10T15:57:30;30.30;91.80
20370;DHT22;10344;47.592;9.600;2023-06-10T15:59:55;30.10;91.80
20370;DHT22;10344;47.592;9.600;2023-06-10T16:02:26;30.10;91.10
20370;DHT22;10344;47.592;9.600;2023-06-10T16:04:53;30.20;91.50
20370;DHT22;10344;47.592;9.600;2023-06-10T16:07:29;30.10;91.30
20370;DHT22;10344;47.592;9.600;2023-06-10T16:09:54;30.10;91.90